Time;durP1;ratioP1;P1;durP2;ratioP2;P2;SDS_P1;SDS_P2;PMS_P1;PMS_P2;Temp;Humidity;BMP_temperature;BMP_pressure;BME280_temperature;BME280_humidity;BME280_pressure;Samples;Min_cycle;Max_cycle;Signal;HPM_P1;HPM_P2
2023/04/10 00:00:09;;;;;;;5.70;4.63;;;;;;;;;;5015938;28;20245;-56
2023/04/10 00:02:36;;;;;;;5.00;4.60;;;;;;;;;;5012182;28;20630;-56
2023/04/10 00:05:02;;;;;;;4.60;4.20;;;;;;;;;;5016370;28;20560;-56
2023/04/10 00:07:28;;;;;;;5.00;4.60;;;;;;;;;;5011683;28;20265;-55
2023/04/10 00:09:54;;;;;;;5.00;4.60;;;;;;;;;;5014629;28;20574;-55
2023/04/10 00:12:20;;;;;;;4.77;4.37;;;;;;;;;;5009509;28;20759;-56
2023/04/10 00:14:46;;;;;;;4.73;4.27;;;;;;;;;;5014135;28;20190;-56
2023/04/10 00:17:12;;;;;;;4.83;4.43;;;;;;;;;;5010013;28;20669;-55
2023/04/10 00:19:39;;;;;;;4.60;4.20;;;;;;;;;;5014848;28;20663;-55
2023/04/10 00:22:05;;;;;;;4.70;4.30;;;;;;;;;;5010665;28;20436;-55
2023/04/10 00:24:31;;;;;;;4.20;3.90;;;;;;;;;;5009597;28;20175;-56
2023/04/10 00:26:57;;;;;;;5.03;4.63;;;;;;;;;;5006869;28;20181;-56
2023/04/10 00:29:24;;;;;;;5.03;4.60;;;;;;;;;;5017574;28;20209;-56
2023/04/10 00:31:50;;;;;;;5.20;4.80;;;;;;;;;;5012220;28;20182;-56
2023/04/10 00:34:16;;;;;;;5.10;4.67;;;;;;;;;;5010238;28;20662;-56
2023/04/10 00:36:42;;;;;;;5.20;4.70;;;;;;;;;;5013185;28;20186;-56
2023/04/10 00:39:09;;;;;;;5.10;4.70;;;;;;;;;;5012989;28;20581;-55
2023/04/10 00:41:35;;;;;;;5.63;5.07;;;;;;;;;;5003643;28;21534;-56
2023/04/10 00:44:01;;;;;;;5.33;4.83;;;;;;;;;;5010203;28;20172;-56
2023/04/10 00:46:27;;;;;;;5.30;4.20;;;;;;;;;;5008807;28;20179;-56
2023/04/10 00:48:54;;;;;;;4.90;4.50;;;;;;;;;;5013775;28;20545;-56
2023/04/10 00:51:21;;;;;;;5.00;4.60;;;;;;;;;;5010137;28;20175;-56
2023/04/10 00:53:49;;;;;;;5.20;4.70;;;;;;;;;;5010346;28;20213;-56
2023/04/10 00:56:16;;;;;;;4.97;4.57;;;;;;;;;;5010476;28;20174;-56
2023/04/10 00:58:42;;;;;;;5.60;5.10;;;;;;;;;;5009373;28;20273;-56
2023/04/10 01:01:08;;;;;;;5.07;4.60;;;;;;;;;;5008184;28;20295;-56
2023/04/10 01:03:35;;;;;;;6.20;5.03;;;;;;;;;;5009048;28;20182;-56
2023/04/10 01:06:20;;;;;;;5.67;5.17;;;;;;;;;;5010200;28;20194;-56
2023/04/10 01:09:00;;;;;;;5.70;5.20;;;;;;;;;;5008645;28;20550;-56
2023/04/10 01:11:32;;;;;;;6.57;5.77;;;;;;;;;;5011209;28;20206;-56
2023/04/10 01:14:16;;;;;;;5.40;4.93;;;;;;;;;;5008565;28;20179;-56
2023/04/10 01:16:53;;;;;;;5.70;5.20;;;;;;;;;;5007572;28;20183;-56
2023/04/10 01:19:47;;;;;;;5.73;5.23;;;;;;;;;;5007433;28;20776;-56
2023/04/10 01:22:15;;;;;;;5.30;4.80;;;;;;;;;;5003175;28;20225;-56
2023/04/10 01:24:56;;;;;;;5.97;5.43;;;;;;;;;;5008543;28;20227;-55
2023/04/10 01:27:38;;;;;;;5.90;5.30;;;;;;;;;;5005112;28;20174;-56
2023/04/10 01:30:05;;;;;;;5.83;5.20;;;;;;;;;;5000034;28;20194;-55
2023/04/10 01:32:33;;;;;;;5.80;5.13;;;;;;;;;;5004752;28;20185;-55
2023/04/10 01:35:01;;;;;;;6.07;5.17;;;;;;;;;;5007923;28;20182;-56
2023/04/10 01:37:29;;;;;;;4.97;4.57;;;;;;;;;;5007355;28;20634;-56
2023/04/10 01:40:00;;;;;;;5.20;4.80;;;;;;;;;;5005687;28;20206;-56
2023/04/10 01:42:28;;;;;;;5.83;5.23;;;;;;;;;;5007456;28;20190;-56
2023/04/10 01:44:55;;;;;;;5.80;5.20;;;;;;;;;;5010064;28;20182;-56
2023/04/10 01:47:22;;;;;;;5.47;4.97;;;;;;;;;;5007315;28;20693;-56
2023/04/10 01:49:49;;;;;;;6.00;5.40;;;;;;;;;;5008570;28;20317;-55
2023/04/10 01:52:16;;;;;;;6.43;5.23;;;;;;;;;;5007726;28;20186;-56
2023/04/10 01:54:44;;;;;;;5.93;5.43;;;;;;;;;;5009710;28;20192;-56
2023/04/10 01:57:12;;;;;;;6.33;5.73;;;;;;;;;;5008925;28;20197;-57
2023/04/10 01:59:39;;;;;;;5.53;4.90;;;;;;;;;;5008800;28;20646;-56
2023/04/10 02:02:06;;;;;;;5.93;5.37;;;;;;;;;;5003772;28;20182;-56
2023/04/10 02:04:32;;;;;;;6.83;5.90;;;;;;;;;;5006697;28;20371;-56
2023/04/10 02:07:34;;;;;;;5.67;5.17;;;;;;;;;;5007871;28;20645;-56
2023/04/10 02:10:15;;;;;;;6.33;5.73;;;;;;;;;;5010107;28;20276;-56
2023/04/10 02:12:45;;;;;;;5.90;5.37;;;;;;;;;;5005503;28;20404;-63
2023/04/10 02:15:11;;;;;;;5.80;5.20;;;;;;;;;;4999558;28;20185;-56
2023/04/10 02:17:39;;;;;;;5.43;4.93;;;;;;;;;;5007017;28;20320;-56
2023/04/10 02:20:07;;;;;;;5.60;5.10;;;;;;;;;;5005025;28;20710;-55
2023/04/10 02:22:34;;;;;;;6.20;5.60;;;;;;;;;;5016778;28;20304;-55
2023/04/10 02:25:00;;;;;;;6.20;5.60;;;;;;;;;;5006709;28;20183;-56
2023/04/10 02:27:27;;;;;;;5.77;5.13;;;;;;;;;;5008016;28;20561;-56
2023/04/10 02:29:53;;;;;;;6.47;5.87;;;;;;;;;;5007543;28;20187;-56
2023/04/10 02:32:19;;;;;;;5.53;5.03;;;;;;;;;;5006468;28;20174;-55
2023/04/10 02:34:45;;;;;;;6.17;5.60;;;;;;;;;;5014303;28;20194;-56
2023/04/10 02:37:11;;;;;;;6.43;5.80;;;;;;;;;;5009680;28;20243;-56
2023/04/10 02:39:37;;;;;;;6.40;5.80;;;;;;;;;;5008632;28;20709;-56
2023/04/10 02:42:03;;;;;;;6.23;5.63;;;;;;;;;;5011385;28;20183;-56
2023/04/10 02:44:29;;;;;;;5.73;5.23;;;;;;;;;;5008738;28;20179;-56
2023/04/10 02:46:55;;;;;;;6.90;6.13;;;;;;;;;;5008476;28;20186;-56
2023/04/10 02:49:21;;;;;;;5.93;5.30;;;;;;;;;;5006728;28;20775;-56
2023/04/10 02:51:47;;;;;;;5.93;5.33;;;;;;;;;;5009450;28;20244;-56
2023/04/10 02:54:13;;;;;;;6.13;5.53;;;;;;;;;;5009320;28;20194;-56
2023/04/10 02:56:39;;;;;;;5.90;5.30;;;;;;;;;;5005011;28;20850;-56
2023/04/10 02:59:05;;;;;;;5.33;4.83;;;;;;;;;;5006122;28;20625;-55
2023/04/10 03:01:32;;;;;;;5.70;5.20;;;;;;;;;;5011185;28;20644;-56
2023/04/10 03:03:58;;;;;;;6.07;5.57;;;;;;;;;;5012894;28;20178;-56
2023/04/10 03:06:27;;;;;;;5.47;4.97;;;;;;;;;;5006010;28;20174;-56
2023/04/10 03:08:53;;;;;;;5.27;4.83;;;;;;;;;;5004504;28;20704;-56
2023/04/10 03:11:19;;;;;;;6.03;5.30;;;;;;;;;;5003765;28;20256;-56
2023/04/10 03:13:45;;;;;;;6.30;5.70;;;;;;;;;;5009432;28;20430;-56
2023/04/10 03:16:11;;;;;;;6.43;5.83;;;;;;;;;;5010053;28;20261;-56
2023/04/10 03:18:37;;;;;;;5.83;5.33;;;;;;;;;;5003207;28;20189;-55
2023/04/10 03:21:03;;;;;;;5.60;5.10;;;;;;;;;;5006428;28;20269;-55
2023/04/10 03:23:29;;;;;;;5.83;5.23;;;;;;;;;;5015237;28;20262;-55
2023/04/10 03:25:55;;;;;;;5.43;4.93;;;;;;;;;;5008967;28;20178;-56
2023/04/10 03:28:22;;;;;;;5.80;5.30;;;;;;;;;;5009514;28;20674;-55
2023/04/10 03:30:49;;;;;;;5.90;5.37;;;;;;;;;;5009966;28;20194;-56
2023/04/10 03:33:15;;;;;;;7.93;7.23;;;;;;;;;;5012855;28;20241;-55
2023/04/10 03:35:41;;;;;;;5.30;4.80;;;;;;;;;;5011003;28;20597;-55
2023/04/10 03:38:08;;;;;;;5.67;5.17;;;;;;;;;;5013749;28;20283;-55
2023/04/10 03:40:34;;;;;;;5.77;5.17;;;;;;;;;;5008556;28;20338;-55
2023/04/10 03:43:00;;;;;;;6.13;5.63;;;;;;;;;;5012596;28;20180;-55
2023/04/10 03:45:26;;;;;;;6.57;5.70;;;;;;;;;;5017035;28;20193;-55
2023/04/10 03:47:52;;;;;;;6.57;5.20;;;;;;;;;;5013678;28;20191;-55
2023/04/10 03:50:18;;;;;;;5.90;5.40;;;;;;;;;;5014690;28;20274;-55
2023/04/10 03:52:44;;;;;;;5.73;5.23;;;;;;;;;;5006903;28;20175;-55
2023/04/10 03:55:11;;;;;;;6.70;5.33;;;;;;;;;;5009939;28;20679;-54
2023/04/10 03:57:37;;;;;;;5.90;5.30;;;;;;;;;;5013155;28;20190;-55
2023/04/10 04:00:04;;;;;;;5.83;4.80;;;;;;;;;;5011351;28;20214;-55
2023/04/10 04:02:30;;;;;;;4.97;4.57;;;;;;;;;;5013793;28;20185;-55
2023/04/10 04:04:56;;;;;;;5.83;5.07;;;;;;;;;;5010922;28;20296;-55
2023/04/10 04:07:22;;;;;;;6.20;5.60;;;;;;;;;;5009906;28;20183;-55
2023/04/10 04:09:48;;;;;;;6.07;5.47;;;;;;;;;;5010315;28;20187;-55
2023/04/10 04:12:14;;;;;;;5.10;4.60;;;;;;;;;;5013794;28;20229;-55
2023/04/10 04:14:42;;;;;;;5.27;4.77;;;;;;;;;;5012090;28;20631;-55
2023/04/10 04:17:08;;;;;;;5.20;4.70;;;;;;;;;;5010857;28;20272;-55
2023/04/10 04:19:34;;;;;;;5.57;5.00;;;;;;;;;;5016976;28;20385;-55
2023/04/10 04:22:00;;;;;;;5.83;5.23;;;;;;;;;;5012700;28;20242;-55
2023/04/10 04:24:26;;;;;;;5.40;4.90;;;;;;;;;;5009406;28;20190;-56
2023/04/10 04:26:52;;;;;;;5.70;5.17;;;;;;;;;;5011483;28;20187;-56
2023/04/10 04:29:19;;;;;;;6.03;5.60;;;;;;;;;;5009623;28;20189;-56
2023/04/10 04:31:45;;;;;;;5.30;4.80;;;;;;;;;;5010155;28;20209;-61
2023/04/10 04:34:11;;;;;;;6.60;6.07;;;;;;;;;;5019655;28;20190;-55
2023/04/10 04:36:37;;;;;;;4.67;4.27;;;;;;;;;;5007016;28;20174;-56
2023/04/10 04:39:03;;;;;;;5.33;4.33;;;;;;;;;;5011733;28;20211;-55
2023/04/10 04:41:31;;;;;;;4.60;4.20;;;;;;;;;;5020327;28;20178;-55
2023/04/10 04:43:57;;;;;;;5.13;4.63;;;;;;;;;;5009252;28;20237;-54
2023/04/10 04:46:23;;;;;;;6.60;6.00;;;;;;;;;;5009106;28;20275;-55
2023/04/10 04:48:49;;;;;;;5.80;5.20;;;;;;;;;;5012938;28;20193;-54
2023/04/10 04:51:15;;;;;;;4.67;4.27;;;;;;;;;;5010328;28;20178;-55
2023/04/10 04:53:41;;;;;;;5.57;5.00;;;;;;;;;;5013283;28;20186;-55
2023/04/10 04:56:08;;;;;;;5.73;4.87;;;;;;;;;;5014560;28;20214;-56
2023/04/10 04:58:34;;;;;;;4.23;3.83;;;;;;;;;;5006694;28;20194;-55
2023/04/10 05:01:00;;;;;;;6.60;6.00;;;;;;;;;;5008375;28;20663;-56
2023/04/10 05:03:29;;;;;;;4.80;4.37;;;;;;;;;;5007358;28;20660;-54
2023/04/10 05:05:56;;;;;;;5.00;4.17;;;;;;;;;;5009649;28;20179;-54
2023/04/10 05:08:22;;;;;;;4.73;4.27;;;;;;;;;;5008226;28;20193;-54
2023/04/10 05:10:48;;;;;;;5.50;5.00;;;;;;;;;;5006515;28;20674;-55
2023/04/10 05:13:16;;;;;;;5.20;4.70;;;;;;;;;;5011455;28;20178;-55
2023/04/10 05:15:42;;;;;;;5.07;4.57;;;;;;;;;;5014002;28;20576;-56
2023/04/10 05:18:08;;;;;;;5.33;4.83;;;;;;;;;;5007462;28;20206;-54
2023/04/10 05:20:35;;;;;;;4.67;4.27;;;;;;;;;;5010303;28;20236;-54
2023/04/10 05:23:01;;;;;;;5.90;4.87;;;;;;;;;;5012137;28;20220;-55
2023/04/10 05:25:27;;;;;;;5.13;4.63;;;;;;;;;;5009137;28;20646;-56
2023/04/10 05:27:54;;;;;;;5.30;4.70;;;;;;;;;;5010650;28;20188;-55
2023/04/10 05:30:20;;;;;;;5.13;4.63;;;;;;;;;;5007762;28;20237;-55
2023/04/10 05:32:46;;;;;;;6.33;5.17;;;;;;;;;;5010837;28;20726;-56
2023/04/10 05:35:12;;;;;;;5.30;4.80;;;;;;;;;;5007853;28;20622;-56
2023/04/10 05:37:38;;;;;;;5.47;5.00;;;;;;;;;;5007911;28;21167;-56
2023/04/10 05:40:04;;;;;;;5.57;4.73;;;;;;;;;;5008294;28;20698;-56
2023/04/10 05:42:30;;;;;;;5.00;4.50;;;;;;;;;;5008394;28;20186;-55
2023/04/10 05:44:56;;;;;;;5.60;5.07;;;;;;;;;;5007152;28;20594;-56
2023/04/10 05:47:22;;;;;;;5.57;5.00;;;;;;;;;;5008824;28;20185;-55
2023/04/10 05:49:48;;;;;;;6.20;5.60;;;;;;;;;;5008324;28;20189;-56
2023/04/10 05:52:14;;;;;;;6.23;5.47;;;;;;;;;;5008329;28;20174;-55
2023/04/10 05:54:40;;;;;;;5.50;4.90;;;;;;;;;;5008119;28;20185;-56
2023/04/10 05:57:06;;;;;;;6.17;4.70;;;;;;;;;;5005829;28;20183;-56
2023/04/10 05:59:32;;;;;;;5.90;5.30;;;;;;;;;;5008530;28;20214;-55
2023/04/10 06:01:59;;;;;;;5.77;5.23;;;;;;;;;;5005898;28;20210;-55
2023/04/10 06:04:25;;;;;;;5.90;5.30;;;;;;;;;;5010660;28;20179;-55
2023/04/10 06:06:51;;;;;;;6.70;6.10;;;;;;;;;;5008207;28;20639;-52
2023/04/10 06:09:17;;;;;;;8.17;5.03;;;;;;;;;;5004619;28;20182;-52
2023/04/10 06:11:43;;;;;;;5.93;5.33;;;;;;;;;;5005489;28;20323;-52
2023/04/10 06:14:09;;;;;;;5.73;5.17;;;;;;;;;;5011938;28;20249;-52
2023/04/10 06:16:35;;;;;;;5.50;4.90;;;;;;;;;;5003884;28;20194;-52
2023/04/10 06:19:01;;;;;;;5.27;4.77;;;;;;;;;;5006027;28;20175;-52
2023/04/10 06:21:27;;;;;;;5.50;5.00;;;;;;;;;;5003701;28;20284;-52
2023/04/10 06:23:53;;;;;;;6.40;5.80;;;;;;;;;;5009783;28;20766;-52
2023/04/10 06:26:19;;;;;;;6.03;5.13;;;;;;;;;;5007232;28;20182;-52
2023/04/10 06:28:45;;;;;;;5.30;4.80;;;;;;;;;;5009125;28;20634;-52
2023/04/10 06:31:11;;;;;;;5.93;5.33;;;;;;;;;;5001943;28;20179;-52
2023/04/10 06:33:37;;;;;;;5.93;5.33;;;;;;;;;;4997870;28;20590;-52
2023/04/10 06:36:05;;;;;;;6.37;5.30;;;;;;;;;;5008079;28;20179;-52
2023/04/10 06:38:32;;;;;;;5.90;5.40;;;;;;;;;;5011019;28;20194;-52
2023/04/10 06:40:59;;;;;;;4.93;4.43;;;;;;;;;;4997509;28;20293;-52
2023/04/10 06:43:26;;;;;;;5.73;5.20;;;;;;;;;;5008010;28;20174;-52
2023/04/10 06:45:52;;;;;;;5.53;5.03;;;;;;;;;;4999623;28;20265;-52
2023/04/10 06:48:19;;;;;;;5.47;4.97;;;;;;;;;;5005740;28;20175;-52
2023/04/10 06:50:45;;;;;;;6.17;5.40;;;;;;;;;;5006944;28;20187;-52
2023/04/10 06:53:11;;;;;;;5.93;5.13;;;;;;;;;;5005848;28;20183;-52
2023/04/10 06:55:37;;;;;;;5.40;4.83;;;;;;;;;;5012127;28;20181;-52
2023/04/10 06:58:03;;;;;;;6.57;5.63;;;;;;;;;;5005007;28;20193;-52
2023/04/10 07:00:30;;;;;;;6.23;5.63;;;;;;;;;;5006654;28;20234;-52
2023/04/10 07:02:56;;;;;;;5.90;5.33;;;;;;;;;;5008085;28;20182;-52
2023/04/10 07:05:22;;;;;;;5.83;5.27;;;;;;;;;;5003531;28;20205;-52
2023/04/10 07:07:49;;;;;;;5.37;4.87;;;;;;;;;;5005200;28;20175;-52
2023/04/10 07:10:15;;;;;;;5.97;5.37;;;;;;;;;;5006042;28;20182;-52
2023/04/10 07:12:48;;;;;;;5.90;4.90;;;;;;;;;;5006258;28;20202;-52
2023/04/10 07:15:15;;;;;;;5.13;4.70;;;;;;;;;;5011979;28;20182;-53
2023/04/10 07:17:41;;;;;;;5.10;4.60;;;;;;;;;;5005293;28;20243;-53
2023/04/10 07:20:07;;;;;;;5.77;5.20;;;;;;;;;;5004303;28;20205;-53
2023/04/10 07:22:33;;;;;;;5.73;5.20;;;;;;;;;;5000659;28;20221;-51
2023/04/10 07:24:59;;;;;;;4.77;4.37;;;;;;;;;;5002639;28;20543;-52
2023/04/10 07:27:26;;;;;;;6.53;5.47;;;;;;;;;;4997603;28;20266;-52
2023/04/10 07:29:54;;;;;;;5.07;4.20;;;;;;;;;;5001203;28;20815;-52
2023/04/10 07:32:20;;;;;;;4.83;4.40;;;;;;;;;;5014683;28;20579;-52
2023/04/10 07:34:47;;;;;;;5.67;5.17;;;;;;;;;;5005401;28;20205;-53
2023/04/10 07:37:13;;;;;;;5.83;5.23;;;;;;;;;;5006287;28;20638;-53
2023/04/10 07:39:40;;;;;;;5.93;5.03;;;;;;;;;;5006259;28;20206;-58
2023/04/10 07:42:06;;;;;;;5.33;4.80;;;;;;;;;;5001878;28;20182;-52
2023/04/10 07:44:32;;;;;;;5.27;4.77;;;;;;;;;;4999421;28;20178;-52
2023/04/10 07:46:58;;;;;;;6.27;5.43;;;;;;;;;;5013931;28;20774;-52
2023/04/10 07:49:24;;;;;;;5.97;5.13;;;;;;;;;;5027909;28;20277;-52
2023/04/10 07:51:50;;;;;;;5.03;4.53;;;;;;;;;;5027273;28;20243;-52
2023/04/10 07:54:16;;;;;;;16.23;5.37;;;;;;;;;;5002835;28;20269;-52
2023/04/10 07:56:42;;;;;;;4.97;4.47;;;;;;;;;;5001408;28;21124;-52
2023/04/10 07:59:08;;;;;;;5.03;4.53;;;;;;;;;;5006348;28;20265;-52
2023/04/10 08:01:34;;;;;;;5.20;4.70;;;;;;;;;;5002264;28;20179;-52
2023/04/10 08:04:00;;;;;;;5.10;4.40;;;;;;;;;;5016988;28;20190;-52
2023/04/10 08:06:27;;;;;;;5.63;4.63;;;;;;;;;;5011406;28;20539;-51
2023/04/10 08:08:53;;;;;;;5.27;4.60;;;;;;;;;;5003820;28;20757;-52
2023/04/10 08:11:26;;;;;;;4.50;4.10;;;;;;;;;;5003516;28;20207;-53
2023/04/10 08:13:53;;;;;;;5.23;4.73;;;;;;;;;;5006026;28;20196;-53
2023/04/10 08:16:23;;;;;;;4.83;4.43;;;;;;;;;;5021912;28;20656;-52
2023/04/10 08:18:50;;;;;;;6.13;4.57;;;;;;;;;;5011873;28;20171;-52
2023/04/10 08:21:16;;;;;;;4.80;4.30;;;;;;;;;;5012911;28;20324;-52
2023/04/10 08:23:42;;;;;;;4.93;4.37;;;;;;;;;;5024786;28;20183;-52
2023/04/10 08:26:08;;;;;;;4.93;4.50;;;;;;;;;;5012110;28;20634;-52
2023/04/10 08:28:35;;;;;;;5.23;4.73;;;;;;;;;;5015274;28;20174;-54
2023/04/10 08:31:01;;;;;;;4.73;4.33;;;;;;;;;;5019433;28;20203;-54
2023/04/10 08:33:27;;;;;;;5.67;4.57;;;;;;;;;;5016022;28;20179;-55
2023/04/10 08:35:53;;;;;;;4.60;4.20;;;;;;;;;;5031401;28;20178;-56
2023/04/10 08:38:22;;;;;;;5.13;4.63;;;;;;;;;;5017011;28;20184;-55
2023/04/10 08:40:48;;;;;;;4.93;4.53;;;;;;;;;;5002105;28;20206;-55
2023/04/10 08:43:14;;;;;;;4.27;3.87;;;;;;;;;;4992759;28;20238;-55
2023/04/10 08:45:41;;;;;;;4.27;3.87;;;;;;;;;;5006311;28;20201;-55
2023/04/10 08:48:08;;;;;;;5.27;4.53;;;;;;;;;;5002749;28;20565;-54
2023/04/10 08:50:36;;;;;;;4.43;4.03;;;;;;;;;;5006229;28;20228;-54
2023/04/10 08:53:07;;;;;;;4.47;4.07;;;;;;;;;;5016125;28;20182;-54
2023/04/10 08:55:33;;;;;;;4.40;3.77;;;;;;;;;;5006215;28;20589;-54
2023/04/10 08:57:59;;;;;;;5.33;4.17;;;;;;;;;;4991871;28;20210;-54
2023/04/10 09:00:26;;;;;;;4.73;3.77;;;;;;;;;;4991518;28;20191;-55
2023/04/10 09:02:56;;;;;;;5.50;4.20;;;;;;;;;;4991576;28;20388;-56
2023/04/10 09:05:23;;;;;;;4.10;3.70;;;;;;;;;;4990955;28;20175;-56
2023/04/10 09:07:49;;;;;;;4.07;3.67;;;;;;;;;;4996328;28;20206;-55
2023/04/10 09:10:16;;;;;;;4.77;3.73;;;;;;;;;;5005361;28;20717;-55
2023/04/10 09:12:46;;;;;;;4.87;4.37;;;;;;;;;;5006277;28;20214;-53
2023/04/10 09:15:12;;;;;;;4.60;4.10;;;;;;;;;;5004996;28;20210;-56
2023/04/10 09:17:53;;;;;;;5.47;3.73;;;;;;;;;;5005754;28;20637;-53
2023/04/10 09:20:21;;;;;;;4.33;3.93;;;;;;;;;;5003598;28;20536;-54
2023/04/10 09:22:47;;;;;;;4.72;4.10;;;;;;;;;;5001855;28;20955;-53
2023/04/10 09:25:28;;;;;;;4.47;3.83;;;;;;;;;;5008405;28;20178;-55
2023/04/10 09:28:01;;;;;;;4.37;3.93;;;;;;;;;;5011566;28;20189;-54
2023/04/10 09:30:38;;;;;;;3.97;3.67;;;;;;;;;;5005022;28;20178;-55
2023/04/10 09:33:28;;;;;;;4.90;4.13;;;;;;;;;;5006240;28;20182;-55
2023/04/10 09:35:56;;;;;;;4.10;3.77;;;;;;;;;;5008558;28;20183;-53
2023/04/10 09:38:24;;;;;;;5.93;4.20;;;;;;;;;;5002099;28;20194;-54
2023/04/10 09:40:50;;;;;;;4.07;3.67;;;;;;;;;;5006847;28;20206;-54
2023/04/10 09:43:23;;;;;;;4.10;3.70;;;;;;;;;;5008144;28;20236;-54
2023/04/10 09:45:51;;;;;;;3.87;3.50;;;;;;;;;;5008173;28;20643;-55
2023/04/10 09:48:17;;;;;;;3.87;3.57;;;;;;;;;;5007008;28;21454;-54
2023/04/10 09:50:44;;;;;;;4.57;3.30;;;;;;;;;;5012927;28;20190;-54
2023/04/10 09:53:11;;;;;;;3.57;3.27;;;;;;;;;;5008329;28;20282;-54
2023/04/10 09:55:38;;;;;;;3.63;3.33;;;;;;;;;;5009370;28;20648;-54
2023/04/10 09:58:04;;;;;;;4.43;3.60;;;;;;;;;;4996593;28;20178;-54
2023/04/10 10:00:30;;;;;;;3.53;3.23;;;;;;;;;;5008019;28;20225;-54
2023/04/10 10:02:57;;;;;;;4.07;3.63;;;;;;;;;;5009501;28;20170;-54
2023/04/10 10:05:29;;;;;;;3.60;3.30;;;;;;;;;;5004557;28;20191;-55
2023/04/10 10:07:55;;;;;;;3.67;3.37;;;;;;;;;;4999292;28;20210;-54
2023/04/10 10:10:21;;;;;;;3.87;3.47;;;;;;;;;;5008825;28;20163;-54
2023/04/10 10:12:50;;;;;;;3.87;3.53;;;;;;;;;;5009870;28;20225;-55
2023/04/10 10:15:27;;;;;;;4.00;3.60;;;;;;;;;;5009018;28;20201;-55
2023/04/10 10:17:57;;;;;;;4.23;3.83;;;;;;;;;;5009885;28;20533;-55
2023/04/10 10:20:24;;;;;;;3.43;3.13;;;;;;;;;;5009641;28;20745;-54
2023/04/10 10:22:50;;;;;;;3.67;3.37;;;;;;;;;;5008961;28;20226;-54
2023/04/10 10:25:21;;;;;;;3.70;3.40;;;;;;;;;;5008558;28;20623;-54
2023/04/10 10:27:49;;;;;;;3.47;3.20;;;;;;;;;;5009782;28;20162;-54
2023/04/10 10:30:16;;;;;;;3.63;3.33;;;;;;;;;;5009836;28;20164;-53
2023/04/10 10:32:45;;;;;;;4.23;3.83;;;;;;;;;;5009865;28;20201;-54
2023/04/10 10:35:12;;;;;;;4.20;3.80;;;;;;;;;;5008327;28;20185;-54
2023/04/10 10:37:38;;;;;;;3.73;3.43;;;;;;;;;;5009067;28;20719;-54
2023/04/10 10:40:17;;;;;;;4.17;3.80;;;;;;;;;;5007917;28;20194;-54
2023/04/10 10:42:53;;;;;;;3.33;3.03;;;;;;;;;;5009546;28;20638;-54
2023/04/10 10:45:23;;;;;;;4.00;3.70;;;;;;;;;;5009346;28;20191;-54
2023/04/10 10:47:53;;;;;;;3.73;3.43;;;;;;;;;;5009696;28;20166;-54
2023/04/10 10:50:20;;;;;;;3.67;3.37;;;;;;;;;;5008522;28;20182;-54
2023/04/10 10:52:51;;;;;;;3.53;3.23;;;;;;;;;;5009245;28;20622;-54
2023/04/10 10:55:27;;;;;;;5.10;3.63;;;;;;;;;;5008360;28;20619;-54
2023/04/10 10:57:54;;;;;;;3.70;3.40;;;;;;;;;;5009034;28;20697;-54
2023/04/10 11:00:21;;;;;;;4.07;3.67;;;;;;;;;;5009032;28;20226;-54
2023/04/10 11:03:06;;;;;;;4.20;3.80;;;;;;;;;;5009486;28;20582;-54
2023/04/10 11:05:49;;;;;;;4.10;3.53;;;;;;;;;;5008122;28;20176;-54
2023/04/10 11:08:15;;;;;;;4.70;4.07;;;;;;;;;;5007553;28;20214;-54
2023/04/10 11:11:05;;;;;;;3.60;3.30;;;;;;;;;;5006259;28;20200;-54
2023/04/10 11:13:32;;;;;;;3.67;3.37;;;;;;;;;;5007565;28;20244;-54
2023/04/10 11:16:00;;;;;;;3.53;3.23;;;;;;;;;;5007690;28;20266;-54
2023/04/10 11:18:47;;;;;;;3.67;3.30;;;;;;;;;;5007569;28;20178;-54
2023/04/10 11:21:17;;;;;;;4.13;3.73;;;;;;;;;;5008140;28;20664;-54
2023/04/10 11:23:49;;;;;;;4.07;3.10;;;;;;;;;;5007316;28;20185;-54
2023/04/10 11:26:43;;;;;;;3.60;3.30;;;;;;;;;;5009470;28;20628;-54
2023/04/10 11:29:18;;;;;;;3.60;3.30;;;;;;;;;;5008851;28;20167;-54
2023/04/10 11:31:44;;;;;;;3.27;2.97;;;;;;;;;;5009252;28;20717;-54
2023/04/10 11:34:10;;;;;;;3.40;3.10;;;;;;;;;;5008903;28;20177;-54
2023/04/10 11:36:40;;;;;;;3.40;3.10;;;;;;;;;;5009417;28;20163;-55
2023/04/10 11:39:16;;;;;;;3.13;2.93;;;;;;;;;;5006696;28;20165;-55
2023/04/10 11:41:52;;;;;;;3.50;3.20;;;;;;;;;;5009283;28;20178;-55
2023/04/10 11:44:39;;;;;;;3.10;2.90;;;;;;;;;;5008373;28;20192;-55
2023/04/10 11:47:05;;;;;;;2.93;2.73;;;;;;;;;;5011125;28;20201;-55
2023/04/10 11:49:33;;;;;;;3.07;2.87;;;;;;;;;;5011209;28;20167;-56
2023/04/10 11:51:59;;;;;;;3.30;3.00;;;;;;;;;;5011882;28;20171;-55
2023/04/10 11:54:26;;;;;;;4.00;3.47;;;;;;;;;;5010360;28;20186;-55
2023/04/10 11:56:56;;;;;;;2.80;2.60;;;;;;;;;;5011923;28;20677;-55
2023/04/10 11:59:22;;;;;;;3.20;2.93;;;;;;;;;;5011108;28;20160;-55
2023/04/10 12:01:52;;;;;;;3.63;3.33;;;;;;;;;;5011834;28;20195;-55
2023/04/10 12:04:20;;;;;;;4.03;3.73;;;;;;;;;;5011934;28;20255;-55
2023/04/10 12:06:47;;;;;;;3.13;2.93;;;;;;;;;;5012398;28;20166;-55
2023/04/10 12:09:14;;;;;;;4.10;2.90;;;;;;;;;;5011014;28;20576;-55
2023/04/10 12:11:48;;;;;;;3.70;3.30;;;;;;;;;;5012186;28;20287;-55
2023/04/10 12:14:14;;;;;;;3.90;3.57;;;;;;;;;;5011976;28;20679;-55
2023/04/10 12:16:41;;;;;;;3.30;3.00;;;;;;;;;;5012393;28;20184;-55
2023/04/10 12:19:07;;;;;;;3.00;2.80;;;;;;;;;;5011887;28;20192;-55
2023/04/10 12:21:35;;;;;;;3.60;3.17;;;;;;;;;;4996659;28;20247;-54
2023/04/10 12:24:01;;;;;;;3.30;3.10;;;;;;;;;;4991205;28;20164;-54
2023/04/10 12:26:27;;;;;;;3.73;3.00;;;;;;;;;;5012019;28;20180;-54
2023/04/10 12:28:55;;;;;;;3.50;3.20;;;;;;;;;;5011703;28;20629;-54
2023/04/10 12:31:28;;;;;;;3.30;3.00;;;;;;;;;;5009842;28;20638;-55
2023/04/10 12:33:56;;;;;;;3.67;3.13;;;;;;;;;;5011262;28;20596;-54
2023/04/10 12:36:23;;;;;;;3.17;2.87;;;;;;;;;;5012056;28;20574;-54
2023/04/10 12:38:50;;;;;;;3.53;3.23;;;;;;;;;;5010718;28;20182;-54
2023/04/10 12:41:21;;;;;;;5.00;3.10;;;;;;;;;;5010716;28;20203;-55
2023/04/10 12:43:48;;;;;;;3.80;3.50;;;;;;;;;;5011087;28;20251;-55
2023/04/10 12:46:22;;;;;;;4.50;3.23;;;;;;;;;;5011681;28;20164;-55
2023/04/10 12:48:49;;;;;;;3.60;3.30;;;;;;;;;;5011077;28;20176;-55
2023/04/10 12:51:15;;;;;;;3.43;3.13;;;;;;;;;;5011786;28;20242;-55
2023/04/10 12:53:44;;;;;;;5.53;2.93;;;;;;;;;;5009528;28;20219;-55
2023/04/10 12:56:11;;;;;;;3.17;2.87;;;;;;;;;;5011060;28;20192;-55
2023/04/10 12:58:37;;;;;;;2.80;2.60;;;;;;;;;;5011154;28;20671;-55
2023/04/10 13:01:12;;;;;;;3.70;3.20;;;;;;;;;;5011142;28;20258;-55
2023/04/10 13:03:39;;;;;;;3.73;3.00;;;;;;;;;;5011075;28;20177;-55
2023/04/10 13:06:06;;;;;;;3.23;3.00;;;;;;;;;;5011479;28;20708;-53
2023/04/10 13:08:32;;;;;;;2.70;2.50;;;;;;;;;;5011107;28;20639;-54
2023/04/10 13:11:02;;;;;;;3.07;2.80;;;;;;;;;;5009449;28;20324;-55
2023/04/10 13:13:31;;;;;;;2.80;2.60;;;;;;;;;;5011198;28;20524;-54
2023/04/10 13:15:58;;;;;;;3.80;3.40;;;;;;;;;;5010767;28;20165;-55
2023/04/10 13:18:24;;;;;;;3.83;3.47;;;;;;;;;;5011078;28;20259;-56
2023/04/10 13:20:50;;;;;;;3.07;2.87;;;;;;;;;;5010321;28;20268;-55
2023/04/10 13:23:16;;;;;;;3.30;3.00;;;;;;;;;;5025927;28;20208;-55
2023/04/10 13:25:43;;;;;;;3.73;3.43;;;;;;;;;;5009089;28;20176;-55
2023/04/10 13:28:10;;;;;;;3.40;3.07;;;;;;;;;;5010683;28;20164;-56
2023/04/10 13:30:40;;;;;;;3.40;3.10;;;;;;;;;;5010456;28;20185;-56
2023/04/10 13:33:07;;;;;;;3.00;2.80;;;;;;;;;;5009136;28;21009;-56
2023/04/10 13:35:33;;;;;;;3.03;2.80;;;;;;;;;;5008996;28;20545;-56
2023/04/10 13:38:00;;;;;;;3.00;2.80;;;;;;;;;;5008879;28;20245;-55
2023/04/10 13:40:26;;;;;;;2.40;2.20;;;;;;;;;;5006829;28;20203;-56
2023/04/10 13:42:52;;;;;;;2.73;2.50;;;;;;;;;;5008807;28;20154;-56
2023/04/10 13:45:18;;;;;;;2.87;2.67;;;;;;;;;;5008106;28;20179;-56
2023/04/10 13:47:47;;;;;;;3.50;3.20;;;;;;;;;;5009778;28;20169;-56
2023/04/10 13:50:13;;;;;;;2.93;2.73;;;;;;;;;;5010136;28;20415;-56
2023/04/10 13:52:39;;;;;;;2.90;2.60;;;;;;;;;;5010710;28;20163;-56
2023/04/10 13:55:05;;;;;;;3.10;2.90;;;;;;;;;;5008857;28;20191;-56
2023/04/10 13:57:33;;;;;;;3.60;3.30;;;;;;;;;;5010403;28;20172;-56
2023/04/10 13:59:59;;;;;;;3.07;2.87;;;;;;;;;;5010011;28;20560;-59
2023/04/10 14:02:25;;;;;;;3.67;3.37;;;;;;;;;;5010431;28;20159;-56
2023/04/10 14:04:51;;;;;;;3.30;3.00;;;;;;;;;;5005725;28;20268;-56
2023/04/10 14:07:18;;;;;;;3.23;2.90;;;;;;;;;;5009910;28;20256;-56
2023/04/10 14:09:47;;;;;;;2.63;2.43;;;;;;;;;;5007809;28;20579;-56
2023/04/10 14:12:15;;;;;;;3.23;2.97;;;;;;;;;;5010116;28;20216;-56
2023/04/10 14:14:41;;;;;;;2.83;2.63;;;;;;;;;;5009626;28;20585;-56
2023/04/10 14:17:07;;;;;;;2.60;2.40;;;;;;;;;;5010091;28;20533;-56
2023/04/10 14:19:35;;;;;;;3.03;2.73;;;;;;;;;;5009420;28;20589;-56
2023/04/10 14:22:01;;;;;;;2.70;2.50;;;;;;;;;;5009678;28;20252;-56
2023/04/10 14:24:27;;;;;;;2.77;2.57;;;;;;;;;;5008359;28;20658;-56
2023/04/10 14:26:57;;;;;;;2.40;2.20;;;;;;;;;;5009901;28;20178;-56
2023/04/10 14:29:23;;;;;;;2.90;2.60;;;;;;;;;;5009492;28;20188;-56
2023/04/10 14:31:50;;;;;;;3.00;2.80;;;;;;;;;;5009929;28;20167;-56
2023/04/10 14:34:16;;;;;;;2.40;2.20;;;;;;;;;;5009604;28;20166;-56
2023/04/10 14:36:42;;;;;;;2.90;2.53;;;;;;;;;;5010210;28;20179;-56
2023/04/10 14:39:09;;;;;;;2.87;2.67;;;;;;;;;;5007993;28;20170;-56
2023/04/10 14:41:35;;;;;;;3.73;2.73;;;;;;;;;;5009768;28;20237;-55
2023/04/10 14:44:02;;;;;;;2.40;2.20;;;;;;;;;;5009084;28;20163;-55
2023/04/10 14:46:28;;;;;;;2.80;2.60;;;;;;;;;;5009658;28;20165;-55